Time;durP1;ratioP1;P1;durP2;ratioP2;P2;SDS_P1;SDS_P2;PMS_P1;PMS_P2;Temp;Humidity;BMP_temperature;BMP_pressure;BME280_temperature;BME280_humidity;BME280_pressure;Samples;Min_cycle;Max_cycle;Signal;HPM_P1;HPM_P2
2022/08/09 00:01:57;;;;;;;19.90;10.85;;;;;;;16.26;100.00;100706.17;1713305;83;21047;-66
2022/08/09 00:04:24;;;;;;;17.77;10.82;;;;;;;16.24;100.00;100708.05;1712980;83;21250;-67
2022/08/09 00:06:50;;;;;;;16.82;10.00;;;;;;;16.24;100.00;100706.28;1713201;83;21011;-67
2022/08/09 00:09:17;;;;;;;17.85;11.05;;;;;;;16.20;100.00;100706.52;1712975;83;21074;-67
2022/08/09 00:11:43;;;;;;;19.07;10.32;;;;;;;16.20;100.00;100701.20;1713239;83;21043;-68
2022/08/09 00:14:11;;;;;;;16.07;9.93;;;;;;;16.15;100.00;100707.59;1713335;83;21114;-67
2022/08/09 00:16:37;;;;;;;17.30;9.93;;;;;;;16.11;100.00;100711.34;1713029;83;21627;-67
2022/08/09 00:19:04;;;;;;;15.80;9.83;;;;;;;16.08;100.00;100710.18;1712913;83;21059;-67
2022/08/09 00:21:31;;;;;;;17.10;10.15;;;;;;;16.05;100.00;100712.12;1712817;83;21042;-67
2022/08/09 00:24:01;;;;;;;15.98;9.83;;;;;;;16.13;100.00;100704.16;1717265;82;21109;-67
2022/08/09 00:26:29;;;;;;;16.95;10.63;;;;;;;16.11;100.00;100698.06;1742917;82;21616;-66
2022/08/09 00:28:56;;;;;;;24.55;10.63;;;;;;;16.10;100.00;100697.69;1742839;82;21130;-67
2022/08/09 00:31:23;;;;;;;14.07;10.23;;;;;;;16.06;100.00;100700.09;1742346;82;21045;-66
2022/08/09 00:33:52;;;;;;;14.45;9.50;;;;;;;16.05;100.00;100703.67;1742742;82;21484;-66
2022/08/09 00:36:19;;;;;;;10.05;8.73;;;;;;;16.05;100.00;100695.70;1742548;82;21502;-67
2022/08/09 00:38:46;;;;;;;23.12;11.10;;;;;;;16.05;100.00;100704.15;1742665;82;21076;-67
2022/08/09 00:41:13;;;;;;;15.45;9.33;;;;;;;16.07;100.00;100699.14;1742634;82;21618;-67
2022/08/09 00:43:41;;;;;;;13.68;9.53;;;;;;;16.05;100.00;100694.37;1742683;82;21494;-66
2022/08/09 00:46:08;;;;;;;16.80;9.95;;;;;;;16.02;100.00;100698.52;1742612;82;21025;-67
2022/08/09 00:48:35;;;;;;;13.40;9.58;;;;;;;16.03;100.00;100702.89;1742562;82;20997;-67
2022/08/09 00:51:03;;;;;;;16.80;10.18;;;;;;;16.00;100.00;100703.05;1742933;82;21565;-67
2022/08/09 00:53:30;;;;;;;18.85;10.10;;;;;;;15.99;100.00;100700.02;1723368;82;22127;-67
2022/08/09 00:55:57;;;;;;;18.95;10.23;;;;;;;16.01;100.00;100706.12;1707313;84;21619;-66
2022/08/09 00:58:23;;;;;;;12.98;10.20;;;;;;;16.02;100.00;100703.84;1707045;84;22102;-66
2022/08/09 01:00:52;;;;;;;17.82;11.33;;;;;;;16.02;100.00;100697.67;1707283;83;21101;-67
2022/08/09 01:03:30;;;;;;;15.70;11.20;;;;;;;16.02;100.00;100704.31;1707088;84;21624;-67
2022/08/09 01:06:29;;;;;;;16.35;10.20;;;;;;;16.04;100.00;100707.28;1707246;84;21113;-67
2022/08/09 01:09:19;;;;;;;17.55;11.03;;;;;;;16.06;100.00;100702.75;1707009;84;21046;-67
2022/08/09 01:12:03;;;;;;;21.93;10.50;;;;;;;16.07;100.00;100697.81;1707333;84;21863;-66
2022/08/09 01:14:34;;;;;;;14.95;10.20;;;;;;;16.09;100.00;100699.08;1683213;83;21057;-66
2022/08/09 01:17:08;;;;;;;19.07;10.18;;;;;;;16.10;100.00;100692.37;1706252;83;21052;-67
2022/08/09 01:19:46;;;;;;;15.20;10.70;;;;;;;16.09;100.00;100695.09;1711986;83;22007;-67
2022/08/09 01:23:03;;;;;;;18.17;10.25;;;;;;;16.10;100.00;100695.47;1720140;83;21038;-67
2022/08/09 01:26:05;;;;;;;14.50;10.08;;;;;;;16.06;100.00;100701.42;1720590;83;21096;-67
2022/08/09 01:28:32;;;;;;;17.73;10.08;;;;;;;16.06;100.00;100710.72;1720419;83;21890;-66
2022/08/09 01:30:59;;;;;;;12.65;9.73;;;;;;;16.10;100.00;100711.41;1720702;83;21569;-66
2022/08/09 01:33:27;;;;;;;11.55;9.18;;;;;;;16.10;100.00;100712.30;1720540;83;21592;-66
2022/08/09 01:36:02;;;;;;;11.48;10.25;;;;;;;16.10;100.00;100709.64;1720397;83;21044;-67
2022/08/09 01:38:32;;;;;;;12.98;10.18;;;;;;;16.15;100.00;100710.73;1733243;81;21532;-66
2022/08/09 01:41:06;;;;;;;17.65;10.13;;;;;;;16.15;100.00;100710.26;1753444;81;21041;-67
2022/08/09 01:43:35;;;;;;;16.90;9.40;;;;;;;16.17;100.00;100707.97;1755717;81;21036;-67
2022/08/09 01:46:02;;;;;;;12.40;9.38;;;;;;;16.18;100.00;100711.05;1755919;81;21232;-67
2022/08/09 01:48:28;;;;;;;14.03;9.88;;;;;;;16.22;100.00;100702.83;1755794;81;21038;-67
2022/08/09 01:50:55;;;;;;;15.78;9.18;;;;;;;16.24;100.00;100710.70;1755781;81;21056;-66
2022/08/09 01:53:24;;;;;;;12.43;8.85;;;;;;;16.24;100.00;100704.95;1738791;81;21056;-65
2022/08/09 01:55:51;;;;;;;12.23;9.13;;;;;;;16.24;100.00;100696.09;1720662;83;21044;-68
2022/08/09 01:58:18;;;;;;;10.85;8.95;;;;;;;16.24;100.00;100697.42;1720070;83;21667;-66
2022/08/09 02:00:45;;;;;;;13.22;8.55;;;;;;;16.29;100.00;100690.09;1730809;81;21044;-67
2022/08/09 02:03:11;;;;;;;12.68;9.10;;;;;;;16.31;100.00;100689.52;1755739;81;21072;-67
2022/08/09 02:05:38;;;;;;;12.55;9.08;;;;;;;16.34;100.00;100690.70;1755966;81;21084;-68
2022/08/09 02:08:10;;;;;;;9.60;8.10;;;;;;;16.39;100.00;100695.30;1756370;81;21017;-66
2022/08/09 02:10:40;;;;;;;12.33;8.78;;;;;;;16.39;100.00;100692.64;1756169;81;21201;-66
2022/08/09 02:13:08;;;;;;;11.85;7.92;;;;;;;16.35;100.00;100693.27;1755660;81;21088;-67
2022/08/09 02:15:38;;;;;;;8.43;7.47;;;;;;;16.34;100.00;100693.36;1756297;81;21533;-67
2022/08/09 02:18:05;;;;;;;12.82;7.65;;;;;;;16.34;100.00;100700.01;1756043;81;21676;-66
2022/08/09 02:20:36;;;;;;;14.25;7.55;;;;;;;16.32;100.00;100700.08;1746836;81;21634;-67
2022/08/09 02:23:20;;;;;;;8.93;7.17;;;;;;;16.29;100.00;100704.23;1742718;82;21109;-66
2022/08/09 02:25:48;;;;;;;10.53;7.53;;;;;;;16.27;100.00;100697.28;1741415;82;21599;-67
2022/08/09 02:28:35;;;;;;;10.55;7.00;;;;;;;16.27;100.00;100699.94;1742582;82;21125;-66
2022/08/09 02:31:21;;;;;;;12.65;7.80;;;;;;;16.21;100.00;100705.56;1742851;82;21033;-66
2022/08/09 02:33:51;;;;;;;7.35;6.60;;;;;;;16.25;100.00;100704.47;1725588;82;21089;-65
2022/08/09 02:36:35;;;;;;;10.28;7.05;;;;;;;16.21;100.00;100709.07;1742846;82;21959;-68
2022/08/09 02:39:07;;;;;;;8.23;6.97;;;;;;;16.20;100.00;100703.86;1720039;82;21454;-66
2022/08/09 02:41:52;;;;;;;11.10;7.25;;;;;;;16.18;100.00;100705.73;1742682;82;21096;-67
2022/08/09 02:44:22;;;;;;;11.22;7.35;;;;;;;16.17;100.00;100703.99;1742255;82;21037;-66
2022/08/09 02:46:51;;;;;;;8.30;6.87;;;;;;;16.13;100.00;100707.29;1743092;82;21124;-67
2022/08/09 02:49:18;;;;;;;8.80;6.90;;;;;;;16.10;100.00;100716.28;1742409;82;21229;-67
2022/08/09 02:51:49;;;;;;;13.62;7.55;;;;;;;16.09;100.00;100721.19;1742670;82;21526;-66
2022/08/09 02:54:15;;;;;;;11.85;7.20;;;;;;;16.10;100.00;100714.95;1712433;82;21057;-67
2022/08/09 02:56:46;;;;;;;13.25;7.67;;;;;;;16.09;100.00;100711.88;1710704;83;21078;-66
2022/08/09 02:59:13;;;;;;;10.32;7.22;;;;;;;16.06;100.00;100704.08;1707545;84;21068;-66
2022/08/09 03:01:40;;;;;;;10.85;7.00;;;;;;;16.08;100.00;100710.63;1731059;82;21117;-66
2022/08/09 03:04:07;;;;;;;10.68;7.30;;;;;;;16.11;100.00;100718.46;1742846;82;21116;-68
2022/08/09 03:06:33;;;;;;;14.98;7.25;;;;;;;16.12;100.00;100721.02;1721462;82;21101;-67
2022/08/09 03:09:00;;;;;;;11.57;6.80;;;;;;;16.13;100.00;100719.25;1742800;82;21057;-67
2022/08/09 03:11:27;;;;;;;9.53;6.97;;;;;;;16.15;100.00;100718.23;1742756;82;21052;-68
2022/08/09 03:13:54;;;;;;;9.65;7.10;;;;;;;16.17;100.00;100719.94;1742514;82;21558;-66
2022/08/09 03:16:21;;;;;;;15.95;6.92;;;;;;;16.19;100.00;100718.06;1742704;82;21097;-67
2022/08/09 03:18:48;;;;;;;9.50;6.83;;;;;;;16.23;100.00;100717.83;1742890;82;21080;-67
2022/08/09 03:21:15;;;;;;;9.00;6.67;;;;;;;16.24;100.00;100713.36;1721254;82;21194;-67
2022/08/09 03:23:45;;;;;;;10.63;6.28;;;;;;;16.26;100.00;100712.34;1742558;82;21616;-68
2022/08/09 03:26:13;;;;;;;11.97;6.15;;;;;;;16.34;100.00;100709.31;1742314;82;21086;-67
2022/08/09 03:28:41;;;;;;;13.75;6.20;;;;;;;16.52;100.00;100717.66;1742034;82;21044;-65
2022/08/09 03:31:07;;;;;;;8.70;5.33;;;;;;;16.76;100.00;100712.83;1742682;82;21160;-66
2022/08/09 03:33:36;;;;;;;7.40;5.03;;;;;;;17.16;100.00;100717.36;1734598;82;21061;-67
2022/08/09 03:36:03;;;;;;;6.78;5.30;;;;;;;17.54;100.00;100717.01;1742955;82;21052;-66
2022/08/09 03:38:29;;;;;;;7.62;4.97;;;;;;;17.97;100.00;100717.72;1742619;82;21661;-67
2022/08/09 03:40:56;;;;;;;6.58;4.33;;;;;;;18.36;100.00;100714.97;1742842;82;21093;-67
2022/08/09 03:43:23;;;;;;;4.90;4.37;;;;;;;18.74;100.00;100715.77;1742482;82;21022;-67
2022/08/09 03:45:50;;;;;;;7.05;3.83;;;;;;;19.01;100.00;100707.41;1743012;82;21037;-67
2022/08/09 03:48:16;;;;;;;5.97;3.67;;;;;;;19.36;100.00;100712.30;1742399;82;21049;-67
2022/08/09 03:50:43;;;;;;;4.67;3.62;;;;;;;19.43;100.00;100709.61;1742522;82;21528;-68
2022/08/09 03:53:09;;;;;;;4.03;3.62;;;;;;;19.36;100.00;100714.97;1728287;82;21041;-67
2022/08/09 03:55:37;;;;;;;6.22;3.75;;;;;;;19.20;100.00;100719.58;1706872;84;21581;-67
2022/08/09 03:58:03;;;;;;;5.67;3.45;;;;;;;19.08;100.00;100724.74;1706916;84;21089;-67
2022/08/09 04:00:30;;;;;;;7.87;3.65;;;;;;;19.17;100.00;100733.14;1706751;84;21565;-67
2022/08/09 04:02:57;;;;;;;7.35;3.10;;;;;;;19.17;100.00;100723.80;1706259;84;21053;-67
2022/08/09 04:05:23;;;;;;;6.08;3.02;;;;;;;19.17;100.00;100721.13;1681379;84;21676;-67
2022/08/09 04:07:50;;;;;;;5.25;3.33;;;;;;;19.22;100.00;100715.86;1706717;84;21045;-68
2022/08/09 04:10:19;;;;;;;9.85;3.20;;;;;;;19.33;100.00;100717.84;1706859;84;21105;-67
2022/08/09 04:12:51;;;;;;;4.00;2.95;;;;;;;19.43;100.00;100723.45;1706786;84;21058;-67
2022/08/09 04:15:21;;;;;;;7.03;3.22;;;;;;;19.66;100.00;100720.61;1706828;84;21121;-68
2022/08/09 04:17:47;;;;;;;3.08;2.77;;;;;;;20.04;100.00;100718.11;1707040;83;21025;-67
2022/08/09 04:20:14;;;;;;;3.70;2.30;;;;;;;20.34;100.00;100723.67;1708740;83;21628;-69
2022/08/09 04:22:40;;;;;;;5.20;2.65;;;;;;;20.37;100.00;100714.58;1743644;81;21053;-69
2022/08/09 04:25:08;;;;;;;3.80;2.65;;;;;;;20.32;100.00;100718.91;1750785;81;21046;-68
2022/08/09 04:27:39;;;;;;;4.75;2.08;;;;;;;20.58;100.00;100710.44;1750896;81;21025;-68
2022/08/09 04:30:04;;;;;;;2.65;2.15;;;;;;;21.02;100.00;100717.14;1750167;82;21033;-67
2022/08/09 04:32:30;;;;;;;3.45;2.00;;;;;;;21.18;100.00;100714.23;1750610;82;21037;-67
2022/08/09 04:34:57;;;;;;;2.45;2.25;;;;;;;21.16;100.00;100706.32;1750767;82;21060;-68
2022/08/09 04:37:24;;;;;;;5.10;2.05;;;;;;;20.93;100.00;100711.11;1750690;82;21014;-67
2022/08/09 04:39:50;;;;;;;3.80;2.30;;;;;;;20.81;100.00;100711.98;1751209;81;21113;-68
2022/08/09 04:42:17;;;;;;;2.90;2.10;;;;;;;20.79;100.00;100709.91;1750720;82;21048;-68
2022/08/09 04:44:43;;;;;;;2.25;2.05;;;;;;;21.00;100.00;100711.05;1751109;81;21060;-68
2022/08/09 04:47:10;;;;;;;2.98;2.10;;;;;;;21.52;100.00;100712.66;1750660;81;21037;-69
2022/08/09 04:49:37;;;;;;;4.67;2.10;;;;;;;22.18;100.00;100709.05;1751197;81;21049;-68
2022/08/09 04:52:04;;;;;;;1.92;1.60;;;;;;;22.76;100.00;100714.42;1750696;82;21220;-69
2022/08/09 04:54:32;;;;;;;3.87;1.70;;;;;;;23.23;95.55;100705.75;1750927;81;21036;-69
2022/08/09 04:56:59;;;;;;;4.80;1.62;;;;;;;23.72;92.56;100712.99;1750567;82;21032;-68
2022/08/09 04:59:25;;;;;;;3.37;1.42;;;;;;;24.17;88.96;100701.20;1750813;81;21036;-69
2022/08/09 05:01:52;;;;;;;3.55;1.67;;;;;;;24.56;85.99;100700.14;1714999;83;21099;-68
2022/08/09 05:04:18;;;;;;;2.65;1.60;;;;;;;24.83;83.99;100699.57;1687428;85;22226;-68
2022/08/09 05:06:45;;;;;;;2.20;1.52;;;;;;;24.90;83.67;100700.73;1715112;83;21597;-68
2022/08/09 05:09:11;;;;;;;2.37;1.40;;;;;;;24.88;82.25;100706.24;1714779;83;21061;-68
2022/08/09 05:11:40;;;;;;;1.72;1.47;;;;;;;24.91;81.69;100699.73;1714959;82;21597;-69
2022/08/09 05:14:06;;;;;;;1.80;1.50;;;;;;;24.84;82.29;100699.41;1714903;83;21102;-68
2022/08/09 05:16:35;;;;;;;3.40;1.57;;;;;;;24.94;80.35;100703.98;1687975;85;21132;-69
2022/08/09 05:19:02;;;;;;;1.98;1.42;;;;;;;24.86;78.06;100701.48;1714829;83;22923;-68
2022/08/09 05:21:29;;;;;;;2.83;1.40;;;;;;;24.75;79.73;100700.22;1702107;83;21535;-67
2022/08/09 05:23:55;;;;;;;1.95;1.37;;;;;;;24.65;79.66;100705.56;1735664;82;21581;-68
2022/08/09 05:26:22;;;;;;;2.65;1.40;;;;;;;24.63;80.49;100710.73;1735898;82;21064;-68
2022/08/09 05:28:48;;;;;;;2.10;1.42;;;;;;;24.70;80.89;100707.36;1735981;82;21649;-67
2022/08/09 05:31:14;;;;;;;2.02;1.47;;;;;;;24.72;79.69;100712.62;1735845;82;21084;-68
2022/08/09 05:33:41;;;;;;;1.65;1.55;;;;;;;24.55;80.44;100712.75;1736177;82;21606;-68
2022/08/09 05:36:08;;;;;;;3.05;1.60;;;;;;;24.35;81.12;100711.73;1736080;82;21564;-69
2022/08/09 05:38:34;;;;;;;3.08;1.65;;;;;;;24.18;82.25;100715.00;1735907;82;21072;-68
2022/08/09 05:41:01;;;;;;;1.80;1.45;;;;;;;23.99;82.49;100713.03;1736022;82;21517;-70
2022/08/09 05:43:28;;;;;;;2.90;1.40;;;;;;;23.94;80.57;100708.03;1736101;82;21096;-68
2022/08/09 05:45:55;;;;;;;3.30;1.40;;;;;;;23.96;81.61;100711.45;1736025;82;20989;-68
2022/08/09 05:48:21;;;;;;;2.08;1.20;;;;;;;24.06;79.81;100713.74;1736184;82;21032;-68
2022/08/09 05:50:48;;;;;;;1.40;1.17;;;;;;;24.08;78.96;100710.41;1736167;82;21009;-68
2022/08/09 05:53:14;;;;;;;5.20;1.30;;;;;;;24.21;78.44;100710.73;1741497;82;21778;-68
2022/08/09 05:55:41;;;;;;;2.40;1.35;;;;;;;24.32;76.96;100707.97;1748114;82;21514;-68
2022/08/09 05:58:07;;;;;;;2.77;1.30;;;;;;;24.45;76.49;100708.59;1748474;82;22057;-70
2022/08/09 06:00:34;;;;;;;2.15;1.55;;;;;;;24.60;76.12;100706.97;1748259;82;21069;-67
2022/08/09 06:03:02;;;;;;;2.25;1.60;;;;;;;24.83;75.19;100705.80;1748282;82;21033;-69
2022/08/09 06:05:31;;;;;;;2.17;1.40;;;;;;;25.32;71.02;100706.84;1748452;82;21253;-69
2022/08/09 06:07:58;;;;;;;4.07;1.20;;;;;;;25.75;69.31;100709.69;1748575;82;21158;-68
2022/08/09 06:10:36;;;;;;;3.00;1.00;;;;;;;26.29;67.10;100714.66;1748313;82;21080;-68
2022/08/09 06:12:55;;;;;;;3.60;1.30;;;;;;;26.66;64.86;100711.20;1748488;82;21041;-68
2022/08/09 06:15:22;;;;;;;3.05;1.07;;;;;;;26.93;64.78;100710.39;1748192;82;21305;-68
2022/08/09 06:17:50;;;;;;;1.95;1.20;;;;;;;26.98;63.26;100710.79;1748143;82;21084;-68
2022/08/09 06:20:17;;;;;;;4.65;1.47;;;;;;;26.94;61.30;100714.78;1748119;82;21591;-69
2022/08/09 06:22:43;;;;;;;2.80;1.05;;;;;;;27.05;61.89;100713.75;1744504;81;21084;-68
2022/08/09 06:25:09;;;;;;;2.67;0.90;;;;;;;27.23;59.43;100711.14;1750531;81;21097;-69
2022/08/09 06:27:36;;;;;;;4.03;1.45;;;;;;;27.12;58.20;100711.64;1750510;82;21154;-70
2022/08/09 06:30:03;;;;;;;6.97;1.00;;;;;;;27.12;57.82;100712.98;1750494;82;21234;-68
2022/08/09 06:32:30;;;;;;;2.92;1.02;;;;;;;27.36;54.93;100708.42;1750375;82;21980;-68
2022/08/09 06:34:57;;;;;;;1.80;1.17;;;;;;;27.69;55.29;100702.00;1751116;82;21537;-68
2022/08/09 06:37:23;;;;;;;1.95;1.20;;;;;;;28.14;54.93;100702.44;1750525;82;21050;-69
2022/08/09 06:39:50;;;;;;;5.70;1.40;;;;;;;28.68;52.21;100701.48;1751022;82;21549;-69
2022/08/09 06:42:19;;;;;;;6.03;1.35;;;;;;;28.97;52.38;100701.13;1750608;82;21120;-69
2022/08/09 06:44:47;;;;;;;3.65;1.20;;;;;;;29.24;51.60;100708.19;1750731;82;21650;-70
2022/08/09 06:47:14;;;;;;;1.77;1.05;;;;;;;29.42;51.10;100701.30;1750552;82;21136;-69
2022/08/09 06:49:40;;;;;;;6.17;1.00;;;;;;;29.56;49.82;100709.30;1750785;82;21092;-69
2022/08/09 06:52:07;;;;;;;1.85;0.98;;;;;;;29.85;49.66;100720.58;1750657;82;21021;-69
2022/08/09 06:54:34;;;;;;;3.87;0.93;;;;;;;30.03;48.12;100715.51;1750701;82;21100;-69
2022/08/09 06:57:00;;;;;;;2.98;1.07;;;;;;;29.81;46.07;100712.42;1750938;82;21072;-69
2022/08/09 06:59:27;;;;;;;1.15;1.02;;;;;;;29.41;47.66;100712.66;1750474;82;21618;-69
2022/08/09 07:01:53;;;;;;;3.87;1.22;;;;;;;29.41;47.66;100712.66;1750890;81;21104;-69
2022/08/09 07:04:19;;;;;;;2.02;1.07;;;;;;;29.33;48.15;100707.71;1750536;82;21580;-69
2022/08/09 07:06:47;;;;;;;3.08;1.00;;;;;;;29.16;48.13;100713.59;1750797;82;21046;-70
2022/08/09 07:09:14;;;;;;;1.57;0.98;;;;;;;28.84;48.79;100718.66;1750515;82;21088;-70
2022/08/09 07:11:40;;;;;;;2.35;1.02;;;;;;;28.63;49.24;100724.48;1750963;82;21564;-69
2022/08/09 07:14:07;;;;;;;2.77;1.07;;;;;;;28.03;49.65;100728.41;1750305;82;21581;-69
2022/08/09 07:16:33;;;;;;;1.98;0.80;;;;;;;28.03;49.65;100728.41;1750950;82;21060;-70
2022/08/09 07:19:00;;;;;;;1.77;1.00;;;;;;;28.01;50.90;100734.47;1750643;82;21089;-69
2022/08/09 07:21:26;;;;;;;3.22;0.93;;;;;;;28.16;50.62;100735.63;1750570;82;20998;-70
2022/08/09 07:23:53;;;;;;;5.00;1.05;;;;;;;28.35;49.37;100735.94;1750605;82;21096;-70
2022/08/09 07:26:19;;;;;;;3.98;0.88;;;;;;;28.40;48.43;100735.47;1750889;82;21077;-68
2022/08/09 07:28:46;;;;;;;6.05;0.93;;;;;;;28.26;48.89;100738.75;1750626;82;21116;-70
2022/08/09 07:31:12;;;;;;;5.33;1.10;;;;;;;28.23;48.67;100743.98;1750384;82;21919;-69
2022/08/09 07:33:38;;;;;;;1.27;1.00;;;;;;;28.35;47.75;100736.45;1750874;82;21478;-70
2022/08/09 07:36:05;;;;;;;1.95;0.85;;;;;;;28.39;46.49;100735.10;1750726;82;20986;-68
2022/08/09 07:38:32;;;;;;;1.65;0.90;;;;;;;28.39;47.48;100735.10;1751006;82;21041;-69
2022/08/09 07:40:58;;;;;;;1.57;0.93;;;;;;;28.57;47.23;100735.09;1750972;81;21045;-70
2022/08/09 07:43:25;;;;;;;1.55;0.72;;;;;;;28.63;45.50;100732.61;1750508;82;21947;-70
2022/08/09 07:45:51;;;;;;;2.05;0.80;;;;;;;28.46;45.55;100736.20;1750515;82;21052;-68
2022/08/09 07:48:18;;;;;;;2.30;0.90;;;;;;;28.51;45.03;100727.12;1750494;82;21221;-69
2022/08/09 07:50:45;;;;;;;1.90;0.80;;;;;;;28.41;44.25;100729.91;1750582;82;21053;-69
2022/08/09 07:53:11;;;;;;;2.83;0.90;;;;;;;28.22;44.66;100732.27;1736141;82;21064;-69
2022/08/09 07:55:38;;;;;;;2.12;1.22;;;;;;;28.08;45.24;100730.13;1715199;83;21212;-68
2022/08/09 07:58:04;;;;;;;1.55;1.00;;;;;;;27.98;43.88;100730.73;1714846;83;21081;-69
2022/08/09 08:00:31;;;;;;;2.20;0.98;;;;;;;28.00;44.43;100735.48;1714778;83;22100;-69
2022/08/09 08:03:00;;;;;;;1.45;0.80;;;;;;;27.96;44.49;100728.17;1714956;83;21064;-69
2022/08/09 08:05:26;;;;;;;2.98;0.90;;;;;;;27.97;44.62;100739.84;1714981;83;22069;-69
2022/08/09 08:07:53;;;;;;;2.62;0.72;;;;;;;27.88;44.91;100729.44;1715272;83;21105;-68
2022/08/09 08:10:21;;;;;;;2.67;0.82;;;;;;;27.90;44.52;100729.29;1715007;83;21037;-69
2022/08/09 08:12:47;;;;;;;2.45;0.90;;;;;;;27.98;43.16;100743.75;1715347;83;21061;-67
2022/08/09 08:15:19;;;;;;;4.03;0.70;;;;;;;27.99;42.35;100736.48;1714854;83;21068;-69
2022/08/09 08:17:50;;;;;;;;;;;;;;;27.82;43.71;100743.57;1717816;83;21052;-69
2022/08/09 08:20:16;;;;;;;2.83;1.30;;;;;;;27.68;44.29;100747.66;1714927;83;21176;-66
2022/08/09 08:22:44;;;;;;;1.00;0.80;;;;;;;27.50;45.22;100741.38;1714705;83;21605;-71
2022/08/09 08:25:10;;;;;;;3.00;0.88;;;;;;;27.43;44.70;100743.83;1720360;83;21072;-69
2022/08/09 08:27:37;;;;;;;15.23;1.92;;;;;;;27.36;44.75;100732.77;1720570;83;21326;-69
2022/08/09 08:30:05;;;;;;;2.98;1.10;;;;;;;27.32;44.96;100731.35;1720316;83;21085;-69
2022/08/09 08:32:33;;;;;;;3.70;0.98;;;;;;;27.32;45.17;100738.11;1720380;82;21002;-69
2022/08/09 08:34:59;;;;;;;2.37;0.90;;;;;;;27.30;45.01;100741.47;1719933;83;21116;-68
2022/08/09 08:37:27;;;;;;;5.00;0.80;;;;;;;27.24;44.38;100744.80;1720148;83;21093;-68
2022/08/09 08:39:53;;;;;;;1.15;0.82;;;;;;;27.26;44.48;100742.77;1720349;82;21534;-70
2022/08/09 08:42:21;;;;;;;2.10;0.93;;;;;;;27.28;45.33;100742.11;1720165;83;21108;-68
2022/08/09 08:44:54;;;;;;;2.55;1.10;;;;;;;27.33;44.93;100742.53;1720313;83;21076;-69
2022/08/09 08:47:20;;;;;;;3.02;1.00;;;;;;;27.35;44.58;100740.50;1717318;83;21390;-68
2022/08/09 08:49:46;;;;;;;2.30;1.07;;;;;;;27.29;45.14;100737.08;1720329;83;21108;-70
2022/08/09 08:52:19;;;;;;;1.40;0.90;;;;;;;27.16;45.17;100733.83;1720638;81;21099;-69
2022/08/09 08:54:45;;;;;;;2.58;0.80;;;;;;;27.07;46.08;100737.43;1756110;81;22048;-67
2022/08/09 08:57:11;;;;;;;4.15;0.90;;;;;;;27.05;46.33;100732.16;1755901;81;21596;-68
2022/08/09 08:59:38;;;;;;;2.22;0.78;;;;;;;26.99;43.39;100739.03;1755617;81;21568;-68
2022/08/09 09:02:07;;;;;;;2.50;0.95;;;;;;;26.95;44.32;100728.16;1756285;81;21001;-69
2022/08/09 09:04:34;;;;;;;3.15;0.90;;;;;;;27.04;45.91;100730.47;1756153;81;21040;-69
2022/08/09 09:07:07;;;;;;;2.75;0.80;;;;;;;27.03;45.05;100734.16;1755886;81;21584;-68
2022/08/09 09:09:34;;;;;;;7.00;1.20;;;;;;;26.89;45.43;100734.14;1755854;81;21202;-69
2022/08/09 09:12:02;;;;;;;2.02;0.90;;;;;;;26.85;45.93;100730.06;1755816;81;21064;-68
2022/08/09 09:14:28;;;;;;;4.12;0.90;;;;;;;26.94;46.40;100729.17;1755690;81;21537;-68
2022/08/09 09:16:55;;;;;;;2.45;0.80;;;;;;;27.17;45.83;100727.41;1728114;81;21557;-68
2022/08/09 09:19:21;;;;;;;2.92;0.90;;;;;;;27.29;46.13;100724.91;1755936;81;21060;-69
2022/08/09 09:22:15;;;;;;;2.77;0.60;;;;;;;27.36;45.31;100723.30;1755665;81;21102;-68
2022/08/09 09:24:48;;;;;;;0.90;0.72;;;;;;;27.32;44.37;100723.24;1746687;81;20982;-68
2022/08/09 09:27:20;;;;;;;3.55;0.88;;;;;;;27.28;43.45;100729.09;1742747;82;21049;-68
2022/08/09 09:29:47;;;;;;;1.42;0.70;;;;;;;27.34;42.78;100725.80;1742463;82;22141;-68
2022/08/09 09:32:21;;;;;;;2.15;0.80;;;;;;;27.35;43.23;100725.63;1742541;82;21644;-68
2022/08/09 09:36:39;;;;;;;5.53;1.10;;;;;;;27.72;42.94;100720.65;1882163;75;22524;-68
2022/08/09 09:39:09;;;;;;;4.83;0.80;;;;;;;27.78;42.47;100723.23;1858891;77;20999;-69
2022/08/09 09:41:36;;;;;;;;;;;;;;;27.87;41.49;100724.20;1861621;77;21210;-69
2022/08/09 09:44:05;;;;;;;4.45;1.07;;;;;;;27.87;40.00;100722.84;1858955;77;20156;-68
2022/08/09 09:46:36;;;;;;;3.70;0.90;;;;;;;27.70;40.00;100721.30;1858962;77;20917;-69
2022/08/09 09:49:05;;;;;;;1.92;0.70;;;;;;;27.58;39.93;100717.09;1858844;77;20941;-69
2022/08/09 09:51:34;;;;;;;1.17;0.78;;;;;;;27.43;38.28;100722.70;1858537;77;21075;-70
2022/08/09 09:54:17;;;;;;;3.67;0.95;;;;;;;27.13;39.96;100723.33;1873894;76;21570;-69
2022/08/09 09:56:46;;;;;;;2.05;0.57;;;;;;;26.89;41.63;100718.44;1878795;76;21011;-70
2022/08/09 09:59:17;;;;;;;4.40;0.80;;;;;;;26.86;40.97;100727.69;1879147;76;21024;-69
2022/08/09 10:01:44;;;;;;;2.62;0.80;;;;;;;26.75;42.39;100725.17;1878982;76;21075;-68
2022/08/09 10:04:18;;;;;;;1.82;1.00;;;;;;;26.75;42.85;100719.77;1879282;76;20962;-69
2022/08/09 10:06:46;;;;;;;1.62;0.90;;;;;;;26.77;42.19;100717.77;1878986;76;21064;-68
2022/08/09 10:09:15;;;;;;;1.30;0.60;;;;;;;26.69;42.23;100713.12;1879167;76;22049;-68
2022/08/09 10:11:42;;;;;;;1.00;0.60;;;;;;;26.49;41.99;100715.48;1878919;76;21061;-69
2022/08/09 10:14:26;;;;;;;1.32;0.98;;;;;;;26.42;43.11;100716.56;1878683;76;21037;-69
2022/08/09 10:16:52;;;;;;;3.05;0.85;;;;;;;26.53;43.46;100716.39;1879296;76;21079;-69
2022/08/09 10:19:19;;;;;;;1.82;0.93;;;;;;;26.65;42.76;100708.16;1878813;76;21069;-68
2022/08/09 10:21:48;;;;;;;5.47;0.90;;;;;;;26.70;42.51;100711.27;1878810;76;21025;-69
2022/08/09 10:24:18;;;;;;;7.53;0.90;;;;;;;26.77;40.00;100715.07;1879072;76;21004;-69
2022/08/09 10:26:45;;;;;;;2.98;0.75;;;;;;;26.76;40.81;100706.62;1879442;76;21080;-69
2022/08/09 10:29:12;;;;;;;2.02;0.90;;;;;;;26.72;40.05;100710.61;1848545;76;21037;-68
2022/08/09 10:31:40;;;;;;;3.60;1.00;;;;;;;26.58;38.26;100706.03;1877756;76;21035;-69
2022/08/09 10:34:11;;;;;;;5.00;0.90;;;;;;;26.44;40.27;100708.33;1877149;76;21549;-69
2022/08/09 10:36:39;;;;;;;4.95;1.07;;;;;;;26.37;40.85;100717.50;1877116;76;21072;-68
2022/08/09 10:39:05;;;;;;;3.67;1.00;;;;;;;26.28;40.99;100717.02;1877270;76;21010;-70
2022/08/09 10:41:32;;;;;;;2.12;1.10;;;;;;;26.11;42.00;100711.36;1877518;76;21561;-68
2022/08/09 10:43:58;;;;;;;2.60;0.90;;;;;;;26.01;43.14;100712.34;1877060;76;21182;-69
2022/08/09 10:46:46;;;;;;;2.65;0.82;;;;;;;25.94;43.73;100709.36;1876529;76;21091;-69
2022/08/09 10:49:21;;;;;;;5.10;1.10;;;;;;;26.05;43.21;100701.13;1876061;76;21049;-69
2022/08/09 10:51:55;;;;;;;1.98;1.00;;;;;;;26.10;43.18;100698.84;1788778;80;21138;-68
2022/08/09 10:54:24;;;;;;;3.35;0.80;;;;;;;26.06;42.31;100698.77;1794701;78;21082;-69
2022/08/09 10:57:12;;;;;;;3.92;1.00;;;;;;;26.03;42.83;100707.16;1791730;80;21114;-69
2022/08/09 10:59:40;;;;;;;3.33;0.80;;;;;;;26.05;43.06;100697.08;1791386;80;21034;-69
2022/08/09 11:02:10;;;;;;;3.85;1.10;;;;;;;25.99;43.37;100692.24;1791664;80;21015;-69
2022/08/09 11:04:37;;;;;;;3.37;0.90;;;;;;;25.87;43.60;100700.98;1790990;80;21050;-69
2022/08/09 11:07:09;;;;;;;1.72;0.72;;;;;;;25.79;44.28;100693.20;1791410;80;21050;-69
2022/08/09 11:09:46;;;;;;;2.30;0.80;;;;;;;25.77;44.11;100693.84;1791395;80;21139;-69
2022/08/09 11:12:23;;;;;;;2.85;0.85;;;;;;;25.68;45.06;100689.66;1791279;80;21011;-69
2022/08/09 11:15:00;;;;;;;3.22;1.00;;;;;;;25.65;45.06;100687.27;1791291;80;21026;-68
2022/08/09 11:17:34;;;;;;;1.67;1.00;;;;;;;25.68;45.12;100685.63;1791212;80;21015;-68
2022/08/09 11:20:08;;;;;;;1.37;0.90;;;;;;;25.54;45.41;100684.69;1791319;80;21047;-69
2022/08/09 11:22:50;;;;;;;0.95;0.68;;;;;;;25.41;45.77;100681.41;1791353;80;21198;-69
2022/08/09 11:25:28;;;;;;;2.35;0.85;;;;;;;25.32;46.52;100683.92;1791468;80;21042;-69
2022/08/09 11:27:56;;;;;;;2.98;0.90;;;;;;;25.30;47.63;100687.25;1786063;80;20983;-69
2022/08/09 11:30:30;;;;;;;3.17;1.00;;;;;;;25.40;47.77;100689.11;1791499;80;21014;-69